Time;durP1;ratioP1;P1;durP2;ratioP2;P2;SDS_P1;SDS_P2;PMS_P1;PMS_P2;Temp;Humidity;BMP_temperature;BMP_pressure;BME280_temperature;BME280_humidity;BME280_pressure;Samples;Min_cycle;Max_cycle;Signal;HPM_P1;HPM_P2
2021/01/22 00:07:28;;;;;;;3.28;0.88;;;;;;;9.41;80.43;98146.41;20857125;28;20060;-69
2021/01/22 00:17:29;;;;;;;1.52;0.60;;;;;;;9.33;80.38;98130.59;20882374;28;20072;-69
2021/01/22 00:27:30;;;;;;;1.92;0.40;;;;;;;9.24;81.38;98150.50;20899529;28;20041;-70
2021/01/22 00:37:32;;;;;;;3.13;0.50;;;;;;;8.93;90.25;98128.75;20836261;28;20114;-69
2021/01/22 00:47:33;;;;;;;1.02;0.45;;;;;;;8.51;93.82;98104.44;20884162;28;20168;-69
2021/01/22 00:57:34;;;;;;;1.20;0.47;;;;;;;8.47;95.51;98100.44;20838388;28;20701;-69
2021/01/22 01:07:36;;;;;;;2.92;1.10;;;;;;;8.25;96.47;98097.06;20812553;28;20107;-69
2021/01/22 01:17:37;;;;;;;1.92;0.73;;;;;;;8.26;96.27;98086.53;20813260;28;20041;-70
2021/01/22 01:27:38;;;;;;;2.85;1.20;;;;;;;8.63;92.62;98086.97;20795009;28;20073;-69
2021/01/22 01:37:39;;;;;;;3.67;0.73;;;;;;;8.75;91.04;98072.06;20869548;28;20516;-69
2021/01/22 01:47:40;;;;;;;1.90;1.10;;;;;;;8.84;90.03;98097.38;20893320;28;20455;-70
2021/01/22 01:57:42;;;;;;;1.70;0.80;;;;;;;9.05;87.27;98100.78;20880989;28;20041;-69
2021/01/22 02:07:43;;;;;;;1.85;0.60;;;;;;;9.26;84.52;98104.19;20894035;28;20053;-69
2021/01/22 02:17:46;;;;;;;2.42;0.90;;;;;;;9.35;82.48;98105.16;20827190;28;20049;-69
2021/01/22 02:27:48;;;;;;;3.15;1.02;;;;;;;9.51;80.38;98094.22;20825827;28;20059;-69
2021/01/22 02:37:50;;;;;;;5.82;0.90;;;;;;;9.61;78.40;98097.69;20800363;28;20489;-69
2021/01/22 02:47:51;;;;;;;4.25;1.08;;;;;;;9.72;76.65;98079.31;20868452;28;20057;-69
2021/01/22 02:57:59;;;;;;;4.45;1.05;;;;;;;9.71;75.83;98077.66;20905811;28;20397;-69
2021/01/22 03:08:13;;;;;;;4.38;0.98;;;;;;;9.64;75.80;98071.34;20834067;28;20057;-68
2021/01/22 03:18:19;;;;;;;3.90;0.90;;;;;;;9.77;75.02;98082.34;20839086;28;20096;-70
2021/01/22 03:28:20;;;;;;;6.53;1.25;;;;;;;9.86;73.33;98081.53;20821195;28;20460;-69
2021/01/22 03:38:21;;;;;;;4.38;1.17;;;;;;;9.61;76.47;98061.13;20839537;28;20045;-70
2021/01/22 03:48:22;;;;;;;3.65;1.20;;;;;;;9.61;75.73;98056.75;20820106;28;20041;-69
2021/01/22 03:58:23;;;;;;;5.22;0.98;;;;;;;9.47;76.08;98064.13;20847888;28;20048;-71
2021/01/22 04:08:24;;;;;;;5.78;0.85;;;;;;;9.63;74.92;98064.44;20816132;28;20057;-70
2021/01/22 04:18:25;;;;;;;7.07;1.23;;;;;;;9.79;72.88;98059.53;20819384;28;20052;-70
2021/01/22 04:28:26;;;;;;;3.08;0.80;;;;;;;9.58;74.58;98040.53;20880110;28;20045;-69
2021/01/22 04:38:27;;;;;;;4.22;1.10;;;;;;;9.61;75.13;98043.69;20901261;28;20037;-70
2021/01/22 04:48:29;;;;;;;2.63;0.73;;;;;;;9.61;74.50;98035.00;20855494;28;20040;-70
2021/01/22 04:58:33;;;;;;;5.85;1.13;;;;;;;9.63;75.41;98022.66;20855836;28;20045;-70
2021/01/22 05:08:34;;;;;;;6.88;1.13;;;;;;;9.67;75.53;98008.38;20832748;28;20041;-70
2021/01/22 05:18:36;;;;;;;4.97;1.05;;;;;;;9.64;75.03;98000.81;20813091;28;20041;-71
2021/01/22 05:28:47;;;;;;;4.20;0.95;;;;;;;9.81;74.12;97994.91;20812582;28;20065;-70
2021/01/22 05:38:48;;;;;;;4.03;1.23;;;;;;;9.45;78.89;98004.19;20810146;28;20665;-70
2021/01/22 05:49:09;;;;;;;2.70;1.00;;;;;;;9.71;74.89;98004.50;20810738;28;20096;-69
2021/01/22 05:59:14;;;;;;;3.72;1.00;;;;;;;9.70;75.43;98018.56;20827528;28;20775;-69
2021/01/22 06:09:31;;;;;;;3.40;0.82;;;;;;;9.55;78.07;97999.03;20881909;23;20045;-70
2021/01/22 06:19:36;;;;;;;2.47;0.90;;;;;;;9.42;78.44;98000.09;20812294;28;20049;-70
2021/01/22 06:29:38;;;;;;;5.55;1.02;;;;;;;9.52;77.65;97989.66;20862595;28;20041;-70
2021/01/22 06:39:42;;;;;;;5.90;1.25;;;;;;;9.52;77.19;97987.03;20834973;28;20045;-70
2021/01/22 06:49:43;;;;;;;3.70;1.00;;;;;;;9.59;76.01;97984.72;20840990;28;20037;-70
2021/01/22 06:59:44;;;;;;;4.47;1.02;;;;;;;9.60;78.25;97978.56;20846536;28;20049;-71
2021/01/22 07:09:45;;;;;;;5.10;1.33;;;;;;;9.68;77.04;97983.91;20854797;28;20041;-71
2021/01/22 07:19:59;;;;;;;4.90;1.33;;;;;;;9.53;77.55;97980.88;20837690;28;20093;-71
2021/01/22 07:30:11;;;;;;;5.13;1.20;;;;;;;9.85;72.84;97980.63;20828272;28;20072;-70
2021/01/22 07:40:12;;;;;;;6.28;1.08;;;;;;;10.03;70.07;97975.50;20875943;28;20050;-70
2021/01/22 07:50:16;;;;;;;5.53;1.02;;;;;;;10.02;71.43;97985.13;20826813;28;20041;-68
2021/01/22 08:00:19;;;;;;;8.07;2.08;;;;;;;10.06;69.95;97983.06;20825497;28;20107;-70
2021/01/22 08:10:26;;;;;;;9.18;1.42;;;;;;;10.19;69.15;98001.94;20829879;28;20053;-69
2021/01/22 08:20:27;;;;;;;6.25;1.30;;;;;;;10.27;69.01;97981.97;20862856;28;20818;-70
2021/01/22 08:30:29;;;;;;;7.43;2.00;;;;;;;10.31;70.57;97984.31;20843903;28;20056;-70
2021/01/22 08:40:43;;;;;;;5.65;1.80;;;;;;;10.22;71.99;97993.81;20844404;28;20049;-70
2021/01/22 08:50:57;;;;;;;5.65;1.63;;;;;;;10.27;71.25;98002.06;20839707;28;20485;-70
2021/01/22 09:00:58;;;;;;;7.47;1.75;;;;;;;10.04;74.42;98001.50;20831575;28;20099;-70
2021/01/22 09:10:59;;;;;;;7.88;1.77;;;;;;;10.19;73.54;97983.63;20845644;28;20488;-72
2021/01/22 09:21:05;;;;;;;8.93;1.55;;;;;;;10.58;70.74;97987.81;20846378;28;20076;-71
2021/01/22 09:31:06;;;;;;;8.18;1.95;;;;;;;10.88;70.45;97991.97;20844901;28;20043;-73
2021/01/22 09:41:07;;;;;;;7.03;1.33;;;;;;;10.53;72.00;98002.28;20840246;28;20488;-70
2021/01/22 09:51:08;;;;;;;5.25;1.77;;;;;;;10.49;74.47;98008.75;20836816;28;20787;-70
2021/01/22 10:01:09;;;;;;;6.78;1.30;;;;;;;10.68;73.30;98022.63;20834277;28;20096;-71
2021/01/22 10:11:10;;;;;;;4.32;1.30;;;;;;;10.98;70.97;98039.88;20821889;28;20037;-72
2021/01/22 10:21:10;;;;;;;5.43;0.98;;;;;;;10.90;72.33;98045.00;20854895;28;20045;-72
2021/01/22 10:31:13;;;;;;;6.18;1.35;;;;;;;10.84;73.30;98048.19;20853735;28;20049;-72
2021/01/22 10:41:14;;;;;;;4.28;1.20;;;;;;;10.80;72.56;98057.28;20875473;28;20070;-72
2021/01/22 10:51:15;;;;;;;7.53;1.42;;;;;;;10.68;73.70;98076.72;20857474;28;20098;-71
2021/01/22 11:01:16;;;;;;;3.50;0.95;;;;;;;6.78;89.66;98122.56;20858881;28;20045;-72
2021/01/22 11:11:17;;;;;;;2.20;0.88;;;;;;;5.14;94.18;98145.63;20829821;28;20040;-71
2021/01/22 11:21:18;;;;;;;2.47;0.60;;;;;;;4.36;99.17;98179.44;20829488;28;20037;-71
2021/01/22 11:31:19;;;;;;;1.83;0.30;;;;;;;3.78;100.00;98208.97;20829152;28;20053;-70
2021/01/22 11:41:20;;;;;;;2.45;0.40;;;;;;;3.74;100.00;98215.28;20820269;28;20053;-71
2021/01/22 11:51:20;;;;;;;1.63;0.30;;;;;;;3.50;100.00;98214.19;20827810;28;20053;-70
2021/01/22 12:01:21;;;;;;;1.30;0.47;;;;;;;3.48;100.00;98221.19;20827030;28;20057;-70
2021/01/22 12:11:23;;;;;;;2.90;0.40;;;;;;;3.39;100.00;98213.09;20832711;28;20076;-69
2021/01/22 12:21:23;;;;;;;2.30;0.65;;;;;;;3.71;100.00;98230.97;20830957;28;20563;-70
2021/01/22 12:31:24;;;;;;;1.48;0.77;;;;;;;3.63;100.00;98221.09;20825407;28;20493;-70
2021/01/22 12:41:26;;;;;;;1.98;0.82;;;;;;;3.59;100.00;98223.97;20822898;28;20091;-71
2021/01/22 12:51:27;;;;;;;1.63;0.68;;;;;;;3.32;100.00;98216.94;20822539;28;20042;-68
2021/01/22 13:01:27;;;;;;;3.20;1.00;;;;;;;3.40;100.00;98239.78;20833386;28;20056;-70
2021/01/22 13:11:29;;;;;;;3.58;1.10;;;;;;;3.22;100.00;98236.50;20820822;28;20048;-68
2021/01/22 13:21:30;;;;;;;4.10;1.42;;;;;;;3.01;100.00;98220.50;20820681;28;20065;-68
2021/01/22 13:31:31;;;;;;;6.18;3.40;;;;;;;3.06;100.00;98220.25;20824211;28;20135;-70
2021/01/22 13:41:32;;;;;;;5.30;3.08;;;;;;;2.91;100.00;98224.56;20819442;28;20042;-69
2021/01/22 13:51:33;;;;;;;6.55;2.67;;;;;;;2.96;100.00;98242.38;20827206;28;20048;-71
2021/01/22 14:01:34;;;;;;;7.07;3.45;;;;;;;3.01;100.00;98261.03;20820695;28;20049;-68
2021/01/22 14:11:36;;;;;;;6.38;3.33;;;;;;;3.01;100.00;98273.94;20837850;28;20120;-69
2021/01/22 14:21:39;;;;;;;9.38;5.05;;;;;;;3.25;100.00;98279.47;20838117;28;20448;-69
2021/01/22 14:31:40;;;;;;;6.32;3.45;;;;;;;3.25;100.00;98287.22;20831982;28;20140;-70
2021/01/22 14:41:41;;;;;;;7.22;4.30;;;;;;;3.09;100.00;98302.78;20836850;28;20461;-68
2021/01/22 14:51:42;;;;;;;10.98;6.60;;;;;;;3.28;100.00;98308.53;20832243;28;20037;-69
2021/01/22 15:01:43;;;;;;;11.55;6.93;;;;;;;3.33;100.00;98306.53;20830598;28;20080;-70
2021/01/22 15:11:45;;;;;;;17.92;9.43;;;;;;;3.14;100.00;98282.66;20849230;28;20045;-73
2021/01/22 15:21:46;;;;;;;27.27;12.45;;;;;;;3.25;100.00;98279.47;20872583;28;20103;-71
2021/01/22 15:31:47;;;;;;;15.25;8.52;;;;;;;3.22;100.00;98264.94;20827377;28;20515;-72
2021/01/22 15:41:48;;;;;;;21.92;12.65;;;;;;;3.18;100.00;98278.97;20836904;28;20492;-69
2021/01/22 15:51:49;;;;;;;21.92;11.70;;;;;;;3.20;100.00;98287.47;20832366;28;20055;-69
2021/01/22 16:01:50;;;;;;;22.35;11.65;;;;;;;3.28;100.00;98271.50;20830843;28;20058;-71
2021/01/22 16:11:51;;;;;;;36.22;18.45;;;;;;;3.46;100.00;98265.25;20855446;28;20099;-69
2021/01/22 16:21:52;;;;;;;31.20;15.95;;;;;;;3.36;100.00;98257.19;20829796;28;20042;-70
2021/01/22 16:31:53;;;;;;;25.77;14.40;;;;;;;3.25;100.00;98266.53;20822339;28;20045;-70
2021/01/22 16:41:54;;;;;;;27.50;13.90;;;;;;;3.18;100.00;98278.97;20828002;28;20041;-71
2021/01/22 16:51:55;;;;;;;20.73;10.85;;;;;;;3.07;100.00;98275.34;20882747;28;20455;-69
2021/01/22 17:01:56;;;;;;;27.08;13.07;;;;;;;3.03;100.00;98282.44;20894272;28;20046;-70
2021/01/22 17:11:59;;;;;;;29.58;15.00;;;;;;;2.94;100.00;98262.31;20820629;28;20148;-69
2021/01/22 17:22:00;;;;;;;28.58;14.93;;;;;;;2.94;100.00;98282.97;20824228;28;20045;-70
2021/01/22 17:32:01;;;;;;;28.42;14.60;;;;;;;2.94;100.00;98288.16;20818320;28;20096;-70
2021/01/22 17:42:19;;;;;;;24.10;14.05;;;;;;;3.05;100.00;98274.63;20818311;28;20103;-70
2021/01/22 17:52:20;;;;;;;25.40;13.63;;;;;;;3.02;100.00;98254.94;20818483;28;20053;-70
2021/01/22 18:02:21;;;;;;;24.13;13.35;;;;;;;3.09;100.00;98266.59;20816850;28;20061;-70
2021/01/22 18:12:36;;;;;;;36.50;17.43;;;;;;;3.10;100.00;98270.81;20836926;28;20041;-69
2021/01/22 18:22:40;;;;;;;28.23;14.10;;;;;;;3.00;100.00;98269.69;20866373;28;20050;-69
2021/01/22 18:32:42;;;;;;;29.75;16.52;;;;;;;3.05;100.00;98290.13;20816389;28;20041;-69
2021/01/22 18:42:43;;;;;;;35.70;18.60;;;;;;;3.10;100.00;98277.78;20853593;28;20063;-69
2021/01/22 18:52:44;;;;;;;35.50;18.80;;;;;;;3.11;100.00;98277.66;20826418;28;20049;-69
2021/01/22 19:02:45;;;;;;;34.15;19.38;;;;;;;3.01;100.00;98263.59;20830167;28;20038;-69
2021/01/22 19:12:46;;;;;;;31.85;16.70;;;;;;;2.98;100.00;98258.63;20833917;28;20068;-69
2021/01/22 19:22:47;;;;;;;37.83;19.33;;;;;;;2.89;100.00;98254.00;20832851;28;20053;-68
2021/01/22 19:32:48;;;;;;;34.22;18.98;;;;;;;2.94;100.00;98254.56;20854204;28;20068;-69
2021/01/22 19:42:49;;;;;;;36.20;19.42;;;;;;;2.80;100.00;98265.66;20830122;28;20558;-69
2021/01/22 19:52:50;;;;;;;39.78;20.80;;;;;;;2.84;100.00;98279.25;20812689;28;20091;-69
2021/01/22 20:02:51;;;;;;;37.50;18.15;;;;;;;2.79;100.00;98284.69;20827674;28;20132;-69
2021/01/22 20:12:53;;;;;;;33.53;16.75;;;;;;;2.84;100.00;98302.50;20848875;28;20048;-69
2021/01/22 20:22:56;;;;;;;26.80;13.48;;;;;;;2.80;100.00;98329.41;20828304;28;20045;-70
2021/01/22 20:32:57;;;;;;;22.38;10.90;;;;;;;2.75;100.00;98357.25;20849645;28;20132;-70
2021/01/22 20:42:58;;;;;;;15.27;7.47;;;;;;;2.69;100.00;98394.59;20895545;28;20056;-70
2021/01/22 20:52:59;;;;;;;14.38;6.45;;;;;;;2.61;100.00;98422.56;20890208;28;20504;-70
2021/01/22 21:03:00;;;;;;;12.38;5.78;;;;;;;2.50;100.00;98428.31;20897410;28;20055;-70
2021/01/22 21:13:04;;;;;;;10.63;4.40;;;;;;;2.48;100.00;98435.31;20878109;28;20048;-70
2021/01/22 21:23:06;;;;;;;9.77;5.30;;;;;;;2.53;100.00;98442.81;20824180;28;20041;-69
2021/01/22 21:33:07;;;;;;;7.10;3.28;;;;;;;2.46;100.00;98434.56;20883207;28;20508;-69
2021/01/22 21:43:08;;;;;;;5.38;2.30;;;;;;;2.50;100.00;98430.88;20895699;28;20094;-69
2021/01/22 21:53:09;;;;;;;4.20;1.80;;;;;;;2.40;100.00;98432.28;20895657;28;20102;-68
2021/01/22 22:03:10;;;;;;;3.85;1.30;;;;;;;2.33;100.00;98432.72;20902774;28;20045;-69
2021/01/22 22:13:11;;;;;;;5.22;1.75;;;;;;;2.31;100.00;98437.09;20881276;28;20069;-69
2021/01/22 22:23:13;;;;;;;7.05;2.63;;;;;;;2.46;100.00;98444.88;20865216;28;20053;-70
2021/01/22 22:33:14;;;;;;;7.85;3.53;;;;;;;2.46;100.00;98444.88;20918519;28;20051;-71
2021/01/22 22:43:15;;;;;;;9.30;4.28;;;;;;;2.54;100.00;98467.69;20909735;28;20041;-71
2021/01/22 22:53:16;;;;;;;7.80;4.00;;;;;;;2.52;100.00;98480.72;20918423;28;20059;-71
2021/01/22 23:03:17;;;;;;;10.65;4.38;;;;;;;2.57;100.00;98486.47;20917152;28;20045;-71
2021/01/22 23:13:18;;;;;;;7.80;4.28;;;;;;;2.58;100.00;98493.31;20880753;28;20049;-71
2021/01/22 23:23:20;;;;;;;6.15;3.45;;;;;;;2.55;100.00;98514.09;20834747;28;20053;-72
2021/01/22 23:33:21;;;;;;;7.25;4.10;;;;;;;2.56;100.00;98539.03;20903973;28;20052;-71
2021/01/22 23:43:22;;;;;;;10.02;4.10;;;;;;;2.59;100.00;98559.50;20903551;28;20053;-72
2021/01/22 23:53:23;;;;;;;11.10;5.13;;;;;;;2.56;100.00;98575.19;20894754;28;20060;-72
